Monday, December 18, 2017, 4:18 PM CST
Back to Local

KCNK, Concordia, Blosser Municipal Airport

Location: Concordia, KS, United States Lat: 39.551
Local Time: 4:18 PM CST (22:18 GMT) Lon: -97.651
Time Zone: US/Central Elev: 1486 ft

Show me the last for .
Show Decoded

2017-12-18 15:55 METAR KCNK 182155Z AUTO 20014KT 10SM CLR 13/M01 A2991 RMK AO2 SLP132 T01281006 =
2017-12-18 14:55 METAR KCNK 182055Z AUTO 23016G21KT 10SM CLR 13/M01 A2992 RMK AO2 SLP137
                 T01281006 56028 =
2017-12-18 13:55 METAR KCNK 181955Z AUTO 22011KT 10SM CLR 12/M01 A2995 RMK AO2 SLP146 T01171006 =
2017-12-18 12:55 METAR KCNK 181855Z AUTO 25010KT 10SM CLR 09/M01 A2998 RMK AO2 SLP157 T00941006 =
2017-12-18 11:55 METAR KCNK 181755Z AUTO 24010KT 10SM CLR 08/M01 A3001 RMK AO2 SLP170 T00781006
                 10083 21022 58007 =
2017-12-18 10:55 METAR KCNK 181655Z AUTO 24012KT 10SM CLR 05/M01 A3003 RMK AO2 SLP179 T00501011 =
2017-12-18 09:55 METAR KCNK 181555Z AUTO 23009KT 10SM CLR 03/M01 A3004 RMK AO2 SLP184 T00281011 =
2017-12-18 08:55 METAR KCNK 181455Z AUTO 25008KT 10SM CLR 00/M02 A3003 RMK AO2 SLP180 T00001022
                 51008 =
2017-12-18 07:55 METAR KCNK 181355Z AUTO 24009KT 10SM CLR M02/M03 A3002 RMK AO2 SLP179 T10171033
                 =
2017-12-18 06:55 METAR KCNK 181255Z AUTO 24009KT 10SM CLR M01/M03 A3001 RMK AO2 SLP173 T10061028
                 =
2017-12-18 05:55 METAR KCNK 181155Z AUTO 24009KT 10SM CLR M01/M02 A3000 RMK AO2 SLP171 T10061022
                 11006 21022 58005 =
2017-12-18 04:55 METAR KCNK 181055Z AUTO 24007KT 10SM CLR M02/M03 A3002 RMK AO2 SLP176 T10171028
                 =
2017-12-18 03:55 METAR KCNK 180955Z AUTO 24009KT 10SM CLR M02/M03 A3002 RMK AO2 SLP175 T10171033
                 =
2017-12-18 02:55 METAR KCNK 180855Z AUTO 23006KT 10SM CLR M02/M03 A3002 RMK AO2 SLP174 T10221033
                 53001 =
2017-12-18 01:55 METAR KCNK 180755Z AUTO 24006KT 10SM CLR M01/M03 A3001 RMK AO2 SLP171 T10111028
                 =
2017-12-18 00:55 METAR KCNK 180655Z AUTO 23006KT 10SM CLR M01/M03 A3000 RMK AO2 SLP169 T10111028
                 =
2017-12-17 23:55 METAR KCNK 180555Z AUTO 27004KT 10SM CLR M01/M03 A3002 RMK AO2 SLP174 T10111028
                 10039 21017 400831017 51000 =
2017-12-17 22:55 METAR KCNK 180455Z AUTO 28004KT 10SM CLR 00/M02 A3002 RMK AO2 SLP173 T00001022 =
2017-12-17 21:55 METAR KCNK 180355Z AUTO 27004KT 10SM CLR M01/M03 A3002 RMK AO2 SLP177 T10061028
                 =
2017-12-17 20:55 METAR KCNK 180255Z AUTO 29004KT 10SM CLR 01/M02 A3002 RMK AO2 SLP174 T00111022
                 51012 =
2017-12-17 19:55 METAR KCNK 180155Z AUTO 30004KT 10SM CLR 02/M02 A3001 RMK AO2 SLP171 T00171017 =
2017-12-17 18:55 METAR KCNK 180055Z AUTO 30003KT 10SM CLR 03/M02 A3000 RMK AO2 SLP167 T00281017 =
2017-12-17 17:55 METAR KCNK 172355Z AUTO 34004KT 10SM CLR 04/M02 A2998 RMK AO2 SLP160 T00391017
                 10083 20033 53006 =
2017-12-17 16:55 METAR KCNK 172255Z AUTO 34006KT 10SM CLR 05/M02 A2997 RMK AO2 SLP155 T00501017 =

Support USWX by starting your Amazon purchase here.